Terminal Aerodrome Forecast
Issued by NWS Louisville, KY

Home | Current Version | Previous Version | Text Only | Print | Product List | Glossary On
Versions: 1 2 3 4 5 6 7 8 9 10 11 12 13 14 15 16 17 18
386
FTUS43 KLMK 052340
TAFLEX
TAF
KLEX 052340Z 0600/0624 06008KT P6SM OVC200
     FM060600 08009KT 4SM -RA BR OVC007
     FM061300 09005KT 2SM RA BR OVC004
     FM061700 29010KT 3SM -RA BR OVC005
     FM062000 29012G18KT P6SM OVC012=

USA.gov is the U.S. government's official web portal to all federal, state and local government web resources and services.